sensor_id;sensor_type;location;lat;lon;timestamp;P1;durP1;ratioP1;P2;durP2;ratioP2
52586;SDS011;38480;52.724;6.436;2022-10-31T00:00:41;60.13;;;28.13;;
52586;SDS011;38480;52.724;6.436;2022-10-31T00:03:07;67.17;;;28.63;;
52586;SDS011;38480;52.724;6.436;2022-10-31T00:05:33;63.70;;;29.97;;
52586;SDS011;38480;52.724;6.436;2022-10-31T00:07:59;60.97;;;28.27;;
52586;SDS011;38480;52.724;6.436;2022-10-31T00:10:25;63.23;;;28.43;;
52586;SDS011;38480;52.724;6.436;2022-10-31T00:12:51;59.77;;;25.80;;
52586;SDS011;38480;52.724;6.436;2022-10-31T00:15:17;55.87;;;26.67;;
52586;SDS011;38480;52.724;6.436;2022-10-31T00:17:43;60.53;;;27.57;;
52586;SDS011;38480;52.724;6.436;2022-10-31T00:20:09;59.27;;;27.20;;
52586;SDS011;38480;52.724;6.436;2022-10-31T00:22:35;64.37;;;28.27;;
52586;SDS011;38480;52.724;6.436;2022-10-31T00:25:01;60.93;;;28.83;;
52586;SDS011;38480;52.724;6.436;2022-10-31T00:27:27;66.70;;;29.73;;
52586;SDS011;38480;52.724;6.436;2022-10-31T00:29:53;57.20;;;27.20;;
52586;SDS011;38480;52.724;6.436;2022-10-31T00:32:19;54.37;;;26.23;;
52586;SDS011;38480;52.724;6.436;2022-10-31T00:34:45;60.67;;;28.63;;
52586;SDS011;38480;52.724;6.436;2022-10-31T00:37:11;66.93;;;30.93;;
52586;SDS011;38480;52.724;6.436;2022-10-31T00:39:37;62.77;;;31.40;;
52586;SDS011;38480;52.724;6.436;2022-10-31T00:42:03;67.00;;;31.53;;
52586;SDS011;38480;52.724;6.436;2022-10-31T00:44:29;61.83;;;29.03;;
52586;SDS011;38480;52.724;6.436;2022-10-31T00:46:55;72.40;;;31.33;;
52586;SDS011;38480;52.724;6.436;2022-10-31T00:49:21;70.20;;;32.33;;
52586;SDS011;38480;52.724;6.436;2022-10-31T00:51:47;76.07;;;34.43;;
52586;SDS011;38480;52.724;6.436;2022-10-31T00:54:13;72.17;;;32.47;;
52586;SDS011;38480;52.724;6.436;2022-10-31T00:56:39;72.10;;;32.27;;
52586;SDS011;38480;52.724;6.436;2022-10-31T00:59:05;72.90;;;31.17;;
52586;SDS011;38480;52.724;6.436;2022-10-31T01:01:31;72.20;;;30.93;;
52586;SDS011;38480;52.724;6.436;2022-10-31T01:03:57;73.47;;;32.40;;
52586;SDS011;38480;52.724;6.436;2022-10-31T01:06:23;83.83;;;34.90;;
52586;SDS011;38480;52.724;6.436;2022-10-31T01:08:49;82.63;;;36.77;;
52586;SDS011;38480;52.724;6.436;2022-10-31T01:11:17;88.97;;;38.47;;
52586;SDS011;38480;52.724;6.436;2022-10-31T01:13:44;94.03;;;40.63;;
52586;SDS011;38480;52.724;6.436;2022-10-31T01:16:11;94.63;;;38.97;;
52586;SDS011;38480;52.724;6.436;2022-10-31T01:18:37;85.53;;;37.80;;
52586;SDS011;38480;52.724;6.436;2022-10-31T01:21:08;116.50;;;44.60;;
52586;SDS011;38480;52.724;6.436;2022-10-31T01:23:34;95.60;;;40.93;;
52586;SDS011;38480;52.724;6.436;2022-10-31T01:26:05;100.07;;;41.33;;
52586;SDS011;38480;52.724;6.436;2022-10-31T01:28:32;87.97;;;41.00;;
52586;SDS011;38480;52.724;6.436;2022-10-31T01:31:05;85.47;;;39.97;;
52586;SDS011;38480;52.724;6.436;2022-10-31T01:33:31;87.90;;;36.40;;
52586;SDS011;38480;52.724;6.436;2022-10-31T01:35:57;90.27;;;38.17;;
52586;SDS011;38480;52.724;6.436;2022-10-31T01:38:23;84.83;;;37.33;;
52586;SDS011;38480;52.724;6.436;2022-10-31T01:40:50;75.13;;;35.50;;
52586;SDS011;38480;52.724;6.436;2022-10-31T01:43:16;73.17;;;35.60;;
52586;SDS011;38480;52.724;6.436;2022-10-31T01:45:42;79.57;;;35.00;;
52586;SDS011;38480;52.724;6.436;2022-10-31T01:48:14;87.30;;;38.77;;
52586;SDS011;38480;52.724;6.436;2022-10-31T01:50:41;98.37;;;41.67;;
52586;SDS011;38480;52.724;6.436;2022-10-31T01:53:08;83.97;;;37.33;;
52586;SDS011;38480;52.724;6.436;2022-10-31T01:55:36;80.23;;;34.70;;
52586;SDS011;38480;52.724;6.436;2022-10-31T01:58:05;69.37;;;33.27;;
52586;SDS011;38480;52.724;6.436;2022-10-31T02:00:32;67.30;;;32.17;;
52586;SDS011;38480;52.724;6.436;2022-10-31T02:02:59;72.67;;;35.63;;
52586;SDS011;38480;52.724;6.436;2022-10-31T02:05:25;88.47;;;39.30;;
52586;SDS011;38480;52.724;6.436;2022-10-31T02:10:22;84.93;;;40.17;;
52586;SDS011;38480;52.724;6.436;2022-10-31T02:12:51;87.67;;;41.17;;
52586;SDS011;38480;52.724;6.436;2022-10-31T02:15:19;78.10;;;36.77;;
52586;SDS011;38480;52.724;6.436;2022-10-31T02:17:45;83.23;;;39.10;;
52586;SDS011;38480;52.724;6.436;2022-10-31T02:28:00;66.00;;;32.93;;
52586;SDS011;38480;52.724;6.436;2022-10-31T02:35:44;59.30;;;30.47;;
52586;SDS011;38480;52.724;6.436;2022-10-31T02:40:48;70.13;;;34.10;;
52586;SDS011;38480;52.724;6.436;2022-10-31T02:43:20;59.40;;;32.73;;
52586;SDS011;38480;52.724;6.436;2022-10-31T02:45:49;66.50;;;33.23;;
52586;SDS011;38480;52.724;6.436;2022-10-31T02:48:19;73.50;;;34.93;;
52586;SDS011;38480;52.724;6.436;2022-10-31T02:50:52;78.47;;;36.90;;
52586;SDS011;38480;52.724;6.436;2022-10-31T02:53:19;85.60;;;37.40;;
52586;SDS011;38480;52.724;6.436;2022-10-31T02:58:15;71.47;;;36.37;;
52586;SDS011;38480;52.724;6.436;2022-10-31T03:06:12;73.03;;;33.50;;
52586;SDS011;38480;52.724;6.436;2022-10-31T03:11:06;95.43;;;40.20;;
52586;SDS011;38480;52.724;6.436;2022-10-31T03:13:45;84.87;;;36.80;;
52586;SDS011;38480;52.724;6.436;2022-10-31T03:16:14;79.50;;;35.77;;
52586;SDS011;38480;52.724;6.436;2022-10-31T03:18:43;90.77;;;39.70;;
52586;SDS011;38480;52.724;6.436;2022-10-31T03:21:55;87.40;;;38.37;;
52586;SDS011;38480;52.724;6.436;2022-10-31T03:24:01;75.30;;;36.20;;
52586;SDS011;38480;52.724;6.436;2022-10-31T03:26:28;98.13;;;42.47;;
52586;SDS011;38480;52.724;6.436;2022-10-31T03:29:02;92.13;;;39.57;;
52586;SDS011;38480;52.724;6.436;2022-10-31T03:31:31;83.90;;;39.60;;
52586;SDS011;38480;52.724;6.436;2022-10-31T03:33:59;86.83;;;39.77;;
52586;SDS011;38480;52.724;6.436;2022-10-31T03:36:26;95.43;;;40.13;;
52586;SDS011;38480;52.724;6.436;2022-10-31T03:38:53;99.13;;;39.63;;
52586;SDS011;38480;52.724;6.436;2022-10-31T03:41:21;96.30;;;40.60;;
52586;SDS011;38480;52.724;6.436;2022-10-31T03:43:58;78.07;;;35.27;;
52586;SDS011;38480;52.724;6.436;2022-10-31T03:46:25;111.47;;;41.90;;
52586;SDS011;38480;52.724;6.436;2022-10-31T03:48:51;84.50;;;35.97;;
52586;SDS011;38480;52.724;6.436;2022-10-31T03:51:21;73.77;;;36.20;;
52586;SDS011;38480;52.724;6.436;2022-10-31T03:54:01;90.03;;;37.20;;
52586;SDS011;38480;52.724;6.436;2022-10-31T03:56:35;81.97;;;39.70;;
52586;SDS011;38480;52.724;6.436;2022-10-31T04:01:28;87.70;;;38.70;;
52586;SDS011;38480;52.724;6.436;2022-10-31T04:03:56;86.17;;;40.13;;
52586;SDS011;38480;52.724;6.436;2022-10-31T04:06:23;104.40;;;43.70;;
52586;SDS011;38480;52.724;6.436;2022-10-31T04:09:00;96.57;;;41.67;;
52586;SDS011;38480;52.724;6.436;2022-10-31T04:11:28;115.90;;;46.43;;
52586;SDS011;38480;52.724;6.436;2022-10-31T04:13:55;87.30;;;40.17;;
52586;SDS011;38480;52.724;6.436;2022-10-31T04:16:23;92.57;;;39.33;;
52586;SDS011;38480;52.724;6.436;2022-10-31T04:18:49;94.90;;;41.10;;
52586;SDS011;38480;52.724;6.436;2022-10-31T04:21:16;88.23;;;38.30;;
52586;SDS011;38480;52.724;6.436;2022-10-31T04:23:42;67.63;;;32.93;;
52586;SDS011;38480;52.724;6.436;2022-10-31T04:26:10;73.43;;;35.47;;
52586;SDS011;38480;52.724;6.436;2022-10-31T04:28:37;81.07;;;37.80;;
52586;SDS011;38480;52.724;6.436;2022-10-31T04:31:03;98.93;;;41.07;;
52586;SDS011;38480;52.724;6.436;2022-10-31T04:33:29;79.30;;;34.60;;
52586;SDS011;38480;52.724;6.436;2022-10-31T04:35:55;98.03;;;39.90;;
52586;SDS011;38480;52.724;6.436;2022-10-31T04:38:21;61.03;;;29.93;;
52586;SDS011;38480;52.724;6.436;2022-10-31T04:40:47;56.87;;;28.77;;
52586;SDS011;38480;52.724;6.436;2022-10-31T04:43:13;106.80;;;43.63;;
52586;SDS011;38480;52.724;6.436;2022-10-31T04:45:39;80.60;;;36.70;;
52586;SDS011;38480;52.724;6.436;2022-10-31T04:48:05;87.80;;;36.43;;
52586;SDS011;38480;52.724;6.436;2022-10-31T04:50:31;70.00;;;31.73;;
52586;SDS011;38480;52.724;6.436;2022-10-31T04:52:57;69.43;;;31.37;;
52586;SDS011;38480;52.724;6.436;2022-10-31T04:55:24;82.03;;;35.27;;
52586;SDS011;38480;52.724;6.436;2022-10-31T04:57:50;110.87;;;44.20;;
52586;SDS011;38480;52.724;6.436;2022-10-31T05:00:17;68.63;;;34.17;;
52586;SDS011;38480;52.724;6.436;2022-10-31T05:02:47;60.10;;;32.73;;
52586;SDS011;38480;52.724;6.436;2022-10-31T05:05:13;78.57;;;34.53;;
52586;SDS011;38480;52.724;6.436;2022-10-31T05:07:40;80.73;;;36.70;;
52586;SDS011;38480;52.724;6.436;2022-10-31T05:10:08;105.63;;;43.43;;
52586;SDS011;38480;52.724;6.436;2022-10-31T05:12:35;96.70;;;42.47;;
52586;SDS011;38480;52.724;6.436;2022-10-31T05:15:01;106.20;;;43.80;;
52586;SDS011;38480;52.724;6.436;2022-10-31T05:17:27;117.80;;;47.00;;
52586;SDS011;38480;52.724;6.436;2022-10-31T05:19:53;75.47;;;36.07;;
52586;SDS011;38480;52.724;6.436;2022-10-31T05:22:19;95.67;;;40.87;;
52586;SDS011;38480;52.724;6.436;2022-10-31T05:24:45;77.90;;;37.17;;
52586;SDS011;38480;52.724;6.436;2022-10-31T05:27:11;105.73;;;42.87;;
52586;SDS011;38480;52.724;6.436;2022-10-31T05:29:37;101.07;;;40.40;;
52586;SDS011;38480;52.724;6.436;2022-10-31T05:32:03;65.67;;;31.20;;
52586;SDS011;38480;52.724;6.436;2022-10-31T05:34:29;83.33;;;34.20;;
52586;SDS011;38480;52.724;6.436;2022-10-31T05:36:55;93.30;;;40.77;;
52586;SDS011;38480;52.724;6.436;2022-10-31T05:39:21;73.33;;;31.97;;
52586;SDS011;38480;52.724;6.436;2022-10-31T05:41:47;58.37;;;30.43;;
52586;SDS011;38480;52.724;6.436;2022-10-31T05:44:13;62.53;;;30.47;;
52586;SDS011;38480;52.724;6.436;2022-10-31T05:46:39;93.20;;;36.80;;
52586;SDS011;38480;52.724;6.436;2022-10-31T05:49:06;81.00;;;33.93;;
52586;SDS011;38480;52.724;6.436;2022-10-31T05:51:32;88.57;;;35.40;;
52586;SDS011;38480;52.724;6.436;2022-10-31T05:53:58;97.87;;;38.27;;
52586;SDS011;38480;52.724;6.436;2022-10-31T05:56:24;71.83;;;30.87;;
52586;SDS011;38480;52.724;6.436;2022-10-31T05:58:50;73.13;;;31.73;;
52586;SDS011;38480;52.724;6.436;2022-10-31T06:01:16;60.43;;;28.93;;
52586;SDS011;38480;52.724;6.436;2022-10-31T06:03:42;66.07;;;28.97;;
52586;SDS011;38480;52.724;6.436;2022-10-31T06:06:08;61.20;;;28.13;;
52586;SDS011;38480;52.724;6.436;2022-10-31T06:08:34;64.43;;;27.67;;
52586;SDS011;38480;52.724;6.436;2022-10-31T06:11:00;67.63;;;29.93;;
52586;SDS011;38480;52.724;6.436;2022-10-31T06:13:26;83.63;;;34.77;;
52586;SDS011;38480;52.724;6.436;2022-10-31T06:15:52;57.60;;;28.50;;
52586;SDS011;38480;52.724;6.436;2022-10-31T06:18:18;82.90;;;33.87;;
52586;SDS011;38480;52.724;6.436;2022-10-31T06:20:44;69.63;;;31.83;;
52586;SDS011;38480;52.724;6.436;2022-10-31T06:23:10;67.07;;;30.47;;
52586;SDS011;38480;52.724;6.436;2022-10-31T06:25:36;50.53;;;27.20;;
52586;SDS011;38480;52.724;6.436;2022-10-31T06:28:02;68.40;;;29.73;;
52586;SDS011;38480;52.724;6.436;2022-10-31T06:30:28;59.17;;;26.87;;
52586;SDS011;38480;52.724;6.436;2022-10-31T06:32:54;72.33;;;30.73;;
52586;SDS011;38480;52.724;6.436;2022-10-31T06:35:26;62.77;;;27.07;;
52586;SDS011;38480;52.724;6.436;2022-10-31T06:37:53;60.57;;;27.17;;
52586;SDS011;38480;52.724;6.436;2022-10-31T06:40:19;66.23;;;29.00;;
52586;SDS011;38480;52.724;6.436;2022-10-31T06:42:45;82.23;;;33.63;;
52586;SDS011;38480;52.724;6.436;2022-10-31T06:45:11;69.03;;;32.33;;
52586;SDS011;38480;52.724;6.436;2022-10-31T06:47:37;79.67;;;34.30;;
52586;SDS011;38480;52.724;6.436;2022-10-31T06:50:04;88.07;;;36.00;;
52586;SDS011;38480;52.724;6.436;2022-10-31T06:52:30;94.67;;;38.43;;
52586;SDS011;38480;52.724;6.436;2022-10-31T06:54:56;125.43;;;44.20;;
52586;SDS011;38480;52.724;6.436;2022-10-31T06:57:22;125.13;;;43.80;;
52586;SDS011;38480;52.724;6.436;2022-10-31T06:59:48;96.93;;;38.80;;
52586;SDS011;38480;52.724;6.436;2022-10-31T07:02:14;112.10;;;41.67;;
52586;SDS011;38480;52.724;6.436;2022-10-31T07:04:40;123.13;;;44.63;;
52586;SDS011;38480;52.724;6.436;2022-10-31T07:07:06;77.03;;;33.03;;
52586;SDS011;38480;52.724;6.436;2022-10-31T07:09:32;65.13;;;30.00;;
52586;SDS011;38480;52.724;6.436;2022-10-31T07:11:58;75.37;;;34.63;;
52586;SDS011;38480;52.724;6.436;2022-10-31T07:14:24;81.10;;;37.87;;
52586;SDS011;38480;52.724;6.436;2022-10-31T07:16:50;90.43;;;41.80;;
52586;SDS011;38480;52.724;6.436;2022-10-31T07:19:16;110.80;;;49.23;;
52586;SDS011;38480;52.724;6.436;2022-10-31T07:21:42;101.30;;;46.80;;
52586;SDS011;38480;52.724;6.436;2022-10-31T07:24:08;96.93;;;47.77;;
52586;SDS011;38480;52.724;6.436;2022-10-31T07:26:35;128.10;;;56.40;;
52586;SDS011;38480;52.724;6.436;2022-10-31T07:29:01;127.23;;;57.30;;
52586;SDS011;38480;52.724;6.436;2022-10-31T07:31:27;167.93;;;64.80;;
52586;SDS011;38480;52.724;6.436;2022-10-31T07:33:53;197.30;;;70.60;;
52586;SDS011;38480;52.724;6.436;2022-10-31T07:36:19;225.37;;;74.17;;
52586;SDS011;38480;52.724;6.436;2022-10-31T07:38:45;158.40;;;66.50;;
52586;SDS011;38480;52.724;6.436;2022-10-31T07:41:11;244.60;;;80.37;;
52586;SDS011;38480;52.724;6.436;2022-10-31T07:43:37;200.13;;;74.30;;
52586;SDS011;38480;52.724;6.436;2022-10-31T07:46:03;275.37;;;84.10;;
52586;SDS011;38480;52.724;6.436;2022-10-31T07:48:29;378.90;;;97.93;;
52586;SDS011;38480;52.724;6.436;2022-10-31T07:50:55;256.67;;;80.83;;
52586;SDS011;38480;52.724;6.436;2022-10-31T07:53:21;307.63;;;88.87;;
52586;SDS011;38480;52.724;6.436;2022-10-31T07:55:47;194.03;;;70.23;;
52586;SDS011;38480;52.724;6.436;2022-10-31T07:58:14;256.57;;;81.57;;
52586;SDS011;38480;52.724;6.436;2022-10-31T08:00:41;216.73;;;74.00;;
52586;SDS011;38480;52.724;6.436;2022-10-31T08:03:11;194.17;;;67.23;;
52586;SDS011;38480;52.724;6.436;2022-10-31T08:05:38;242.23;;;76.63;;
52586;SDS011;38480;52.724;6.436;2022-10-31T08:08:06;227.67;;;74.37;;
52586;SDS011;38480;52.724;6.436;2022-10-31T08:10:32;173.83;;;62.50;;
52586;SDS011;38480;52.724;6.436;2022-10-31T08:15:28;329.90;;;89.33;;
52586;SDS011;38480;52.724;6.436;2022-10-31T08:17:54;285.97;;;83.83;;
52586;SDS011;38480;52.724;6.436;2022-10-31T08:20:20;308.03;;;89.40;;
52586;SDS011;38480;52.724;6.436;2022-10-31T08:22:53;360.23;;;97.43;;
52586;SDS011;38480;52.724;6.436;2022-10-31T08:25:19;252.38;;;80.53;;
52586;SDS011;38480;52.724;6.436;2022-10-31T08:27:52;262.93;;;80.90;;
52586;SDS011;38480;52.724;6.436;2022-10-31T08:30:22;308.60;;;88.72;;
52586;SDS011;38480;52.724;6.436;2022-10-31T08:32:57;254.93;;;82.23;;
52586;SDS011;38480;52.724;6.436;2022-10-31T08:35:23;325.73;;;89.10;;
52586;SDS011;38480;52.724;6.436;2022-10-31T08:37:52;334.60;;;90.73;;
52586;SDS011;38480;52.724;6.436;2022-10-31T08:40:19;292.83;;;85.50;;
52586;SDS011;38480;52.724;6.436;2022-10-31T08:42:45;293.27;;;87.23;;
52586;SDS011;38480;52.724;6.436;2022-10-31T08:45:11;254.30;;;84.13;;
52586;SDS011;38480;52.724;6.436;2022-10-31T08:47:37;290.13;;;90.63;;
52586;SDS011;38480;52.724;6.436;2022-10-31T08:50:03;220.77;;;80.23;;
52586;SDS011;38480;52.724;6.436;2022-10-31T08:52:29;215.87;;;80.53;;
52586;SDS011;38480;52.724;6.436;2022-10-31T08:54:55;212.13;;;79.90;;
52586;SDS011;38480;52.724;6.436;2022-10-31T08:57:21;162.63;;;66.67;;
52586;SDS011;38480;52.724;6.436;2022-10-31T08:59:47;177.27;;;73.23;;
52586;SDS011;38480;52.724;6.436;2022-10-31T09:02:13;217.43;;;81.53;;
52586;SDS011;38480;52.724;6.436;2022-10-31T09:04:39;172.40;;;70.97;;
52586;SDS011;38480;52.724;6.436;2022-10-31T09:07:05;147.83;;;65.63;;
52586;SDS011;38480;52.724;6.436;2022-10-31T09:09:31;142.83;;;65.67;;
52586;SDS011;38480;52.724;6.436;2022-10-31T09:11:57;133.17;;;63.13;;
52586;SDS011;38480;52.724;6.436;2022-10-31T09:14:24;139.40;;;63.47;;
52586;SDS011;38480;52.724;6.436;2022-10-31T09:16:50;123.13;;;60.00;;
52586;SDS011;38480;52.724;6.436;2022-10-31T09:19:16;110.77;;;57.40;;
52586;SDS011;38480;52.724;6.436;2022-10-31T09:21:42;119.70;;;59.80;;
52586;SDS011;38480;52.724;6.436;2022-10-31T09:24:08;107.30;;;54.73;;
52586;SDS011;38480;52.724;6.436;2022-10-31T09:26:34;109.73;;;54.33;;
52586;SDS011;38480;52.724;6.436;2022-10-31T09:29:00;111.17;;;57.17;;
52586;SDS011;38480;52.724;6.436;2022-10-31T09:31:27;98.73;;;53.07;;
52586;SDS011;38480;52.724;6.436;2022-10-31T09:33:53;107.07;;;55.70;;
52586;SDS011;38480;52.724;6.436;2022-10-31T09:36:19;116.10;;;58.47;;
52586;SDS011;38480;52.724;6.436;2022-10-31T09:38:45;109.33;;;54.33;;
52586;SDS011;38480;52.724;6.436;2022-10-31T09:46:29;89.03;;;47.43;;
52586;SDS011;38480;52.724;6.436;2022-10-31T09:51:31;78.17;;;44.03;;
52586;SDS011;38480;52.724;6.436;2022-10-31T09:54:03;69.87;;;41.40;;
52586;SDS011;38480;52.724;6.436;2022-10-31T09:56:31;85.53;;;48.87;;
52586;SDS011;38480;52.724;6.436;2022-10-31T09:58:58;77.23;;;44.93;;
52586;SDS011;38480;52.724;6.436;2022-10-31T10:03:53;77.93;;;48.27;;
52586;SDS011;38480;52.724;6.436;2022-10-31T10:06:23;71.23;;;46.80;;
52586;SDS011;38480;52.724;6.436;2022-10-31T10:08:50;75.80;;;46.47;;
52586;SDS011;38480;52.724;6.436;2022-10-31T10:11:34;64.93;;;39.83;;
52586;SDS011;38480;52.724;6.436;2022-10-31T10:30:03;31.63;;;23.60;;
52586;SDS011;38480;52.724;6.436;2022-10-31T10:32:35;27.20;;;21.97;;
52586;SDS011;38480;52.724;6.436;2022-10-31T10:35:27;27.50;;;19.08;;
52586;SDS011;38480;52.724;6.436;2022-10-31T10:37:58;30.17;;;18.13;;
52586;SDS011;38480;52.724;6.436;2022-10-31T10:40:26;30.37;;;18.83;;
52586;SDS011;38480;52.724;6.436;2022-10-31T10:42:58;25.43;;;18.37;;
52586;SDS011;38480;52.724;6.436;2022-10-31T10:45:45;26.97;;;18.40;;
52586;SDS011;38480;52.724;6.436;2022-10-31T10:48:37;30.70;;;19.63;;
52586;SDS011;38480;52.724;6.436;2022-10-31T10:51:04;28.73;;;18.73;;
52586;SDS011;38480;52.724;6.436;2022-10-31T10:58:29;24.77;;;18.63;;
52586;SDS011;38480;52.724;6.436;2022-10-31T11:00:55;24.90;;;17.00;;
52586;SDS011;38480;52.724;6.436;2022-10-31T11:03:21;25.47;;;17.50;;
52586;SDS011;38480;52.724;6.436;2022-10-31T11:05:57;24.13;;;16.83;;
52586;SDS011;38480;52.724;6.436;2022-10-31T11:11:08;24.73;;;15.97;;
52586;SDS011;38480;52.724;6.436;2022-10-31T11:13:35;24.30;;;15.90;;
52586;SDS011;38480;52.724;6.436;2022-10-31T11:16:07;19.97;;;14.03;;
52586;SDS011;38480;52.724;6.436;2022-10-31T11:18:36;25.83;;;14.90;;
52586;SDS011;38480;52.724;6.436;2022-10-31T11:21:04;20.07;;;13.17;;
52586;SDS011;38480;52.724;6.436;2022-10-31T11:23:31;23.33;;;13.70;;
52586;SDS011;38480;52.724;6.436;2022-10-31T11:26:01;17.83;;;12.33;;
52586;SDS011;38480;52.724;6.436;2022-10-31T11:28:28;21.17;;;12.47;;
52586;SDS011;38480;52.724;6.436;2022-10-31T11:30:58;19.30;;;12.83;;
52586;SDS011;38480;52.724;6.436;2022-10-31T11:35:54;18.10;;;12.37;;
52586;SDS011;38480;52.724;6.436;2022-10-31T11:38:21;18.27;;;11.67;;
52586;SDS011;38480;52.724;6.436;2022-10-31T11:40:52;16.27;;;11.40;;
52586;SDS011;38480;52.724;6.436;2022-10-31T11:43:19;17.27;;;11.60;;
52586;SDS011;38480;52.724;6.436;2022-10-31T11:45:45;16.10;;;10.20;;
52586;SDS011;38480;52.724;6.436;2022-10-31T11:48:21;22.43;;;10.60;;
52586;SDS011;38480;52.724;6.436;2022-10-31T11:50:49;17.87;;;10.47;;
52586;SDS011;38480;52.724;6.436;2022-10-31T11:53:17;15.43;;;10.70;;
52586;SDS011;38480;52.724;6.436;2022-10-31T11:55:44;17.43;;;9.70;;
52586;SDS011;38480;52.724;6.436;2022-10-31T11:58:23;14.57;;;10.10;;
52586;SDS011;38480;52.724;6.436;2022-10-31T12:00:50;18.03;;;9.97;;
52586;SDS011;38480;52.724;6.436;2022-10-31T12:06:12;16.17;;;10.60;;
52586;SDS011;38480;52.724;6.436;2022-10-31T12:08:37;16.10;;;10.00;;
52586;SDS011;38480;52.724;6.436;2022-10-31T12:11:11;14.97;;;10.20;;
52586;SDS011;38480;52.724;6.436;2022-10-31T12:29:15;14.77;;;8.20;;
52586;SDS011;38480;52.724;6.436;2022-10-31T12:39:50;15.00;;;8.70;;
52586;SDS011;38480;52.724;6.436;2022-10-31T12:47:24;14.97;;;8.13;;
52586;SDS011;38480;52.724;6.436;2022-10-31T12:54:58;14.00;;;8.17;;
52586;SDS011;38480;52.724;6.436;2022-10-31T12:57:33;13.83;;;6.87;;
52586;SDS011;38480;52.724;6.436;2022-10-31T13:00:19;14.90;;;7.13;;
52586;SDS011;38480;52.724;6.436;2022-10-31T13:02:54;15.33;;;8.47;;
52586;SDS011;38480;52.724;6.436;2022-10-31T13:08:06;10.47;;;6.87;;
52586;SDS011;38480;52.724;6.436;2022-10-31T13:10:43;11.83;;;6.80;;
52586;SDS011;38480;52.724;6.436;2022-10-31T13:13:21;8.07;;;6.17;;
52586;SDS011;38480;52.724;6.436;2022-10-31T13:15:50;11.10;;;6.73;;
52586;SDS011;38480;52.724;6.436;2022-10-31T13:18:21;11.10;;;6.63;;
52586;SDS011;38480;52.724;6.436;2022-10-31T13:20:49;15.40;;;7.50;;
52586;SDS011;38480;52.724;6.436;2022-10-31T13:25:49;9.80;;;6.60;;
52586;SDS011;38480;52.724;6.436;2022-10-31T13:28:31;13.90;;;7.20;;
52586;SDS011;38480;52.724;6.436;2022-10-31T13:33:31;13.13;;;7.30;;
52586;SDS011;38480;52.724;6.436;2022-10-31T13:39:00;12.13;;;7.30;;
52586;SDS011;38480;52.724;6.436;2022-10-31T13:41:22;13.97;;;7.53;;
52586;SDS011;38480;52.724;6.436;2022-10-31T13:44:13;12.90;;;7.87;;
52586;SDS011;38480;52.724;6.436;2022-10-31T13:46:40;13.10;;;7.20;;
52586;SDS011;38480;52.724;6.436;2022-10-31T13:51:51;13.77;;;8.27;;
52586;SDS011;38480;52.724;6.436;2022-10-31T13:54:22;13.20;;;7.73;;
52586;SDS011;38480;52.724;6.436;2022-10-31T13:56:52;15.30;;;7.90;;
52586;SDS011;38480;52.724;6.436;2022-10-31T13:59:19;10.20;;;7.30;;
52586;SDS011;38480;52.724;6.436;2022-10-31T14:01:47;13.63;;;7.50;;
52586;SDS011;38480;52.724;6.436;2022-10-31T14:09:05;10.53;;;6.00;;
52586;SDS011;38480;52.724;6.436;2022-10-31T14:11:41;10.43;;;7.17;;
52586;SDS011;38480;52.724;6.436;2022-10-31T14:14:11;11.13;;;7.27;;
52586;SDS011;38480;52.724;6.436;2022-10-31T14:16:37;14.13;;;7.17;;
52586;SDS011;38480;52.724;6.436;2022-10-31T14:19:06;11.57;;;7.13;;
52586;SDS011;38480;52.724;6.436;2022-10-31T14:21:41;16.40;;;7.63;;
52586;SDS011;38480;52.724;6.436;2022-10-31T14:24:40;13.37;;;8.07;;
52586;SDS011;38480;52.724;6.436;2022-10-31T14:27:42;14.20;;;8.33;;
52586;SDS011;38480;52.724;6.436;2022-10-31T14:29:49;15.17;;;8.13;;
52586;SDS011;38480;52.724;6.436;2022-10-31T14:32:20;14.40;;;8.90;;
52586;SDS011;38480;52.724;6.436;2022-10-31T14:53:18;14.93;;;7.77;;
52586;SDS011;38480;52.724;6.436;2022-10-31T14:55:48;11.43;;;7.23;;
52586;SDS011;38480;52.724;6.436;2022-10-31T14:58:20;11.37;;;7.77;;
52586;SDS011;38480;52.724;6.436;2022-10-31T15:00:47;13.80;;;7.40;;
52586;SDS011;38480;52.724;6.436;2022-10-31T15:03:18;16.00;;;8.23;;
52586;SDS011;38480;52.724;6.436;2022-10-31T15:05:49;16.47;;;8.43;;
52586;SDS011;38480;52.724;6.436;2022-10-31T15:13:41;15.20;;;8.00;;
52586;SDS011;38480;52.724;6.436;2022-10-31T15:16:07;16.03;;;9.87;;
52586;SDS011;38480;52.724;6.436;2022-10-31T15:18:34;16.23;;;10.43;;
52586;SDS011;38480;52.724;6.436;2022-10-31T15:21:01;15.97;;;7.77;;
52586;SDS011;38480;52.724;6.436;2022-10-31T15:23:28;14.90;;;8.70;;
52586;SDS011;38480;52.724;6.436;2022-10-31T15:26:01;15.50;;;8.60;;
52586;SDS011;38480;52.724;6.436;2022-10-31T15:28:28;12.47;;;7.83;;
52586;SDS011;38480;52.724;6.436;2022-10-31T15:30:56;13.47;;;8.80;;
52586;SDS011;38480;52.724;6.436;2022-10-31T15:33:26;13.90;;;8.70;;
52586;SDS011;38480;52.724;6.436;2022-10-31T15:35:57;15.97;;;9.53;;
52586;SDS011;38480;52.724;6.436;2022-10-31T15:38:23;11.30;;;7.73;;
52586;SDS011;38480;52.724;6.436;2022-10-31T15:40:51;15.37;;;8.23;;
52586;SDS011;38480;52.724;6.436;2022-10-31T15:43:18;19.57;;;9.47;;
52586;SDS011;38480;52.724;6.436;2022-10-31T15:45:44;15.50;;;8.53;;
52586;SDS011;38480;52.724;6.436;2022-10-31T15:48:44;19.10;;;9.30;;
52586;SDS011;38480;52.724;6.436;2022-10-31T15:51:03;16.67;;;9.00;;
52586;SDS011;38480;52.724;6.436;2022-10-31T15:56:06;13.53;;;8.93;;
52586;SDS011;38480;52.724;6.436;2022-10-31T15:58:33;14.20;;;9.07;;
52586;SDS011;38480;52.724;6.436;2022-10-31T16:01:03;15.73;;;9.13;;
52586;SDS011;38480;52.724;6.436;2022-10-31T16:03:30;16.77;;;9.60;;
52586;SDS011;38480;52.724;6.436;2022-10-31T16:05:57;15.63;;;9.33;;
52586;SDS011;38480;52.724;6.436;2022-10-31T16:13:57;18.03;;;10.10;;
52586;SDS011;38480;52.724;6.436;2022-10-31T16:16:15;20.67;;;10.70;;
52586;SDS011;38480;52.724;6.436;2022-10-31T16:18:42;19.87;;;11.23;;
52586;SDS011;38480;52.724;6.436;2022-10-31T16:21:08;16.93;;;11.17;;
52586;SDS011;38480;52.724;6.436;2022-10-31T16:23:35;23.47;;;14.20;;
52586;SDS011;38480;52.724;6.436;2022-10-31T16:26:05;21.93;;;11.87;;
52586;SDS011;38480;52.724;6.436;2022-10-31T16:28:32;18.97;;;11.50;;
52586;SDS011;38480;52.724;6.436;2022-10-31T16:30:58;23.33;;;11.63;;
52586;SDS011;38480;52.724;6.436;2022-10-31T16:33:32;15.50;;;11.10;;
52586;SDS011;38480;52.724;6.436;2022-10-31T16:35:59;20.63;;;11.90;;
52586;SDS011;38480;52.724;6.436;2022-10-31T16:38:28;21.37;;;12.33;;
52586;SDS011;38480;52.724;6.436;2022-10-31T16:40:54;18.53;;;11.57;;
52586;SDS011;38480;52.724;6.436;2022-10-31T16:43:20;20.23;;;11.07;;
52586;SDS011;38480;52.724;6.436;2022-10-31T16:45:48;18.00;;;12.27;;
52586;SDS011;38480;52.724;6.436;2022-10-31T16:48:21;21.03;;;11.80;;
52586;SDS011;38480;52.724;6.436;2022-10-31T16:50:48;19.40;;;11.93;;
52586;SDS011;38480;52.724;6.436;2022-10-31T16:53:15;17.87;;;11.40;;
52586;SDS011;38480;52.724;6.436;2022-10-31T16:55:50;20.83;;;11.70;;
52586;SDS011;38480;52.724;6.436;2022-10-31T16:58:20;20.17;;;12.43;;
52586;SDS011;38480;52.724;6.436;2022-10-31T17:00:46;20.47;;;11.87;;
52586;SDS011;38480;52.724;6.436;2022-10-31T17:03:12;25.00;;;14.70;;